createdAt,value
2022-10-25T00:00:12.070Z,1.20
2022-10-25T00:00:44.610Z,1.10
2022-10-25T00:01:20.917Z,1.20
2022-10-25T00:01:53.380Z,1.33
2022-10-25T00:02:32.577Z,1.10
2022-10-25T00:03:04.864Z,0.90
2022-10-25T00:03:37.035Z,1.20
2022-10-25T00:04:11.967Z,1.03
2022-10-25T00:04:44.967Z,1.20
2022-10-25T00:05:17.192Z,1.27
2022-10-25T00:05:51.977Z,1.20
2022-10-25T00:06:24.575Z,1.13
2022-10-25T00:06:56.741Z,1.10
2022-10-25T00:07:31.553Z,1.00
2022-10-25T00:08:03.844Z,0.97
2022-10-25T00:08:36.069Z,1.00
2022-10-25T00:09:13.559Z,1.27
2022-10-25T00:09:45.772Z,1.17
2022-10-25T00:10:20.108Z,1.00
2022-10-25T00:10:57.068Z,1.20
2022-10-25T00:11:31.359Z,1.63
2022-10-25T00:12:04.606Z,0.90
2022-10-25T00:12:44.729Z,1.10
2022-10-25T00:13:16.964Z,1.03
2022-10-25T00:13:50.149Z,1.07
2022-10-25T00:14:24.951Z,0.90
2022-10-25T00:14:57.165Z,1.13
2022-10-25T00:15:29.371Z,0.83
2022-10-25T00:16:04.150Z,1.10
2022-10-25T00:16:37.684Z,1.27
2022-10-25T00:17:10.913Z,1.00
2022-10-25T00:17:46.260Z,0.80
2022-10-25T00:18:18.643Z,1.00
2022-10-25T00:18:52.264Z,0.93
2022-10-25T00:19:27.043Z,0.87
2022-10-25T00:19:59.257Z,1.00
2022-10-25T00:20:31.496Z,0.93
2022-10-25T00:21:07.260Z,1.00
2022-10-25T00:21:39.451Z,0.87
2022-10-25T00:22:11.688Z,1.40
2022-10-25T00:22:46.632Z,0.80
2022-10-25T00:23:18.971Z,1.10
2022-10-25T00:23:52.014Z,0.90
2022-10-25T00:24:29.623Z,1.10
2022-10-25T00:25:01.860Z,1.00
2022-10-25T00:25:34.032Z,1.10
2022-10-25T00:26:10.629Z,0.93
2022-10-25T00:26:42.861Z,0.90
2022-10-25T00:27:15.252Z,1.03
2022-10-25T00:27:50.362Z,0.70
2022-10-25T00:28:23.675Z,1.20
2022-10-25T00:28:56.108Z,1.00
2022-10-25T00:29:32.222Z,0.90
2022-10-25T00:30:05.901Z,1.10
2022-10-25T00:30:38.099Z,1.10
2022-10-25T00:31:14.664Z,0.80
2022-10-25T00:31:46.990Z,1.00
2022-10-25T00:32:19.275Z,1.00
2022-10-25T00:32:54.621Z,1.00
2022-10-25T00:33:26.806Z,0.90
2022-10-25T00:33:59.049Z,1.10
2022-10-25T00:34:34.019Z,0.80
2022-10-25T00:35:07.030Z,1.00
2022-10-25T00:35:41.812Z,0.93
2022-10-25T00:36:16.660Z,1.00
2022-10-25T00:36:51.456Z,0.80
2022-10-25T00:37:23.646Z,1.10
2022-10-25T00:37:55.819Z,1.00
2022-10-25T00:38:28.018Z,0.80
2022-10-25T00:39:02.922Z,0.93
2022-10-25T00:39:37.736Z,0.80
2022-10-25T00:40:11.284Z,0.93
2022-10-25T00:40:46.051Z,1.00
2022-10-25T00:41:19.875Z,0.93
2022-10-25T00:41:52.043Z,0.80
2022-10-25T00:42:28.592Z,0.90
2022-10-25T00:43:00.764Z,1.03
2022-10-25T00:43:35.027Z,0.93
2022-10-25T00:44:54.608Z,1.00
2022-10-25T00:45:28.382Z,1.10
2022-10-25T00:46:55.700Z,1.00
2022-10-25T00:47:46.767Z,1.00
2022-10-25T00:48:21.917Z,1.17
2022-10-25T00:48:57.746Z,0.90
2022-10-25T00:49:30.158Z,0.83
2022-10-25T00:50:14.728Z,0.80
2022-10-25T00:50:49.597Z,0.80
2022-10-25T00:51:25.319Z,1.10
2022-10-25T00:52:00.136Z,0.90
2022-10-25T00:52:34.691Z,0.97
2022-10-25T00:53:12.057Z,1.00
2022-10-25T00:53:44.352Z,0.90
2022-10-25T00:55:00.196Z,0.83
2022-10-25T00:55:33.060Z,0.80
2022-10-25T00:56:10.573Z,0.80
2022-10-25T00:56:47.266Z,1.10
2022-10-25T00:57:21.577Z,1.40
2022-10-25T00:57:57.107Z,1.10
2022-10-25T00:58:34.671Z,1.23
2022-10-25T00:59:09.680Z,1.70
2022-10-25T00:59:42.451Z,1.27
2022-10-25T01:00:18.064Z,0.93
2022-10-25T01:00:50.579Z,0.93
2022-10-25T01:01:23.224Z,1.23
2022-10-25T01:01:59.059Z,0.93
2022-10-25T01:02:31.495Z,1.00
2022-10-25T01:03:04.536Z,1.10
2022-10-25T01:03:41.180Z,1.13
2022-10-25T01:04:16.721Z,1.00
2022-10-25T01:04:49.470Z,0.90
2022-10-25T01:05:24.851Z,1.43
2022-10-25T01:05:58.976Z,1.00
2022-10-25T01:06:33.907Z,0.80
2022-10-25T01:07:08.748Z,1.00
2022-10-25T01:07:41.111Z,0.90
2022-10-25T01:08:13.755Z,1.20
2022-10-25T01:08:50.276Z,0.83
2022-10-25T01:09:24.816Z,0.97
2022-10-25T01:09:59.676Z,3.10
2022-10-25T01:10:34.612Z,0.93
2022-10-25T01:11:07.140Z,1.00
2022-10-25T01:11:39.345Z,0.97
2022-10-25T01:12:14.455Z,1.00
2022-10-25T01:12:48.705Z,1.00
2022-10-25T01:13:23.652Z,0.80
2022-10-25T01:13:58.960Z,0.80
2022-10-25T01:14:32.009Z,1.00
2022-10-25T01:15:04.986Z,0.93
2022-10-25T01:15:44.306Z,0.73
2022-10-25T01:16:25.069Z,1.00
2022-10-25T01:17:04.017Z,1.00
2022-10-25T01:17:47.770Z,1.10
2022-10-25T01:18:24.108Z,1.00
2022-10-25T01:19:01.157Z,0.93
2022-10-25T01:19:59.024Z,0.77
2022-10-25T01:20:53.028Z,1.00
2022-10-25T01:21:40.848Z,0.90
2022-10-25T01:22:15.663Z,1.07
2022-10-25T01:22:52.097Z,0.90
2022-10-25T01:23:41.027Z,0.83
2022-10-25T01:24:43.179Z,0.70
2022-10-25T01:25:48.365Z,1.03
2022-10-25T01:26:49.324Z,1.20
2022-10-25T01:27:43.662Z,1.30
2022-10-25T01:28:17.037Z,1.40
2022-10-25T01:29:00.466Z,1.70
2022-10-25T01:30:00.832Z,2.50
2022-10-25T01:30:59.792Z,1.20
2022-10-25T01:31:37.151Z,1.30
2022-10-25T01:32:11.887Z,2.00
2022-10-25T01:33:09.104Z,1.67
2022-10-25T01:33:44.742Z,1.00
2022-10-25T01:34:18.595Z,1.40
2022-10-25T01:34:57.597Z,1.20
2022-10-25T01:35:31.684Z,1.30
2022-10-25T01:36:50.359Z,1.20
2022-10-25T01:37:26.825Z,1.77
2022-10-25T01:38:13.912Z,1.20
2022-10-25T01:38:49.291Z,1.10
2022-10-25T01:39:28.121Z,1.60
2022-10-25T01:40:07.579Z,1.40
2022-10-25T01:40:45.746Z,1.30
2022-10-25T01:41:26.278Z,1.30
2022-10-25T01:42:04.523Z,1.37
2022-10-25T01:42:41.153Z,1.40
2022-10-25T01:43:21.744Z,1.00
2022-10-25T01:44:03.359Z,1.37
2022-10-25T01:44:43.334Z,1.33
2022-10-25T01:45:16.850Z,1.17
2022-10-25T01:45:55.896Z,1.33
2022-10-25T01:46:36.036Z,1.40
2022-10-25T01:47:11.945Z,1.20
2022-10-25T01:47:48.065Z,1.23
2022-10-25T01:48:26.099Z,1.03
2022-10-25T01:49:03.251Z,1.30
2022-10-25T01:49:39.683Z,1.40
2022-10-25T01:50:16.740Z,1.20
2022-10-25T01:50:49.185Z,0.97
2022-10-25T01:51:21.369Z,1.37
2022-10-25T01:51:56.204Z,1.27
2022-10-25T01:52:28.462Z,1.40
2022-10-25T01:53:00.761Z,1.40
2022-10-25T01:53:35.529Z,1.10
2022-10-25T01:54:18.788Z,1.10
2022-10-25T01:54:51.538Z,1.10
2022-10-25T01:55:28.015Z,1.30
2022-10-25T01:56:02.120Z,1.10
2022-10-25T01:56:38.504Z,1.30
2022-10-25T01:57:26.804Z,1.13
2022-10-25T01:58:05.144Z,0.90
2022-10-25T01:58:44.916Z,0.90
2022-10-25T01:59:39.959Z,1.00
2022-10-25T02:00:15.189Z,1.30
2022-10-25T02:00:59.828Z,1.40
2022-10-25T02:01:39.486Z,1.50
2022-10-25T02:02:17.111Z,1.70
2022-10-25T02:03:11.267Z,1.67
2022-10-25T02:03:47.620Z,1.33
2022-10-25T02:04:24.451Z,1.23
2022-10-25T02:05:07.112Z,1.00
2022-10-25T02:05:49.017Z,1.20
2022-10-25T02:06:30.381Z,1.20
2022-10-25T02:07:07.211Z,1.47
2022-10-25T02:07:42.672Z,1.43
2022-10-25T02:08:23.775Z,1.70
2022-10-25T02:09:00.161Z,1.90
2022-10-25T02:09:36.207Z,1.67
2022-10-25T02:10:13.744Z,1.50
2022-10-25T02:10:50.592Z,1.40
2022-10-25T02:11:24.697Z,1.30
2022-10-25T02:12:00.106Z,1.40
2022-10-25T02:12:34.993Z,1.23
2022-10-25T02:13:15.014Z,1.40
2022-10-25T02:13:57.499Z,1.70
2022-10-25T02:14:34.342Z,1.50
2022-10-25T02:15:10.247Z,1.23
2022-10-25T02:15:49.941Z,1.20
2022-10-25T02:16:26.275Z,1.47
2022-10-25T02:17:02.537Z,1.00
2022-10-25T02:17:39.229Z,1.27
2022-10-25T02:18:14.834Z,1.03
2022-10-25T02:18:49.431Z,1.20
2022-10-25T02:19:28.761Z,1.10
2022-10-25T02:20:01.337Z,1.10
2022-10-25T02:20:35.372Z,0.90
2022-10-25T02:21:10.713Z,1.73
2022-10-25T02:21:43.164Z,1.10
2022-10-25T02:22:16.470Z,1.10
2022-10-25T02:22:51.638Z,0.90
2022-10-25T02:23:24.134Z,0.90
2022-10-25T02:23:57.206Z,0.90
2022-10-25T02:24:33.511Z,1.00
2022-10-25T02:25:07.465Z,1.23
2022-10-25T02:25:41.700Z,0.90
2022-10-25T02:26:17.506Z,0.87
2022-10-25T02:26:50.726Z,0.90
2022-10-25T02:27:23.757Z,0.90
2022-10-25T02:28:00.529Z,0.87
2022-10-25T02:28:34.340Z,1.10
2022-10-25T02:29:07.396Z,0.80
2022-10-25T02:29:43.083Z,0.97
2022-10-25T02:30:15.516Z,0.80
2022-10-25T02:30:48.469Z,0.90
2022-10-25T02:31:27.348Z,1.07
2022-10-25T02:31:59.787Z,0.80
2022-10-25T02:32:32.037Z,0.80
2022-10-25T02:33:07.105Z,0.70
2022-10-25T02:33:39.355Z,0.90
2022-10-25T02:34:11.572Z,0.80
2022-10-25T02:34:46.596Z,1.00
2022-10-25T02:35:19.426Z,1.03
2022-10-25T02:36:10.225Z,2.20
2022-10-25T02:36:42.416Z,0.93
2022-10-25T02:37:14.600Z,1.10
2022-10-25T02:37:49.643Z,0.80
2022-10-25T02:38:21.944Z,1.00
2022-10-25T02:38:54.376Z,2.00
2022-10-25T02:39:31.847Z,0.70
2022-10-25T02:40:04.495Z,0.90
2022-10-25T02:40:36.799Z,0.90
2022-10-25T02:41:11.677Z,0.80
2022-10-25T02:41:43.903Z,1.00
2022-10-25T02:42:16.115Z,0.70
2022-10-25T02:42:50.931Z,0.73
2022-10-25T02:43:23.198Z,0.73
2022-10-25T02:43:55.403Z,0.60
2022-10-25T02:44:30.219Z,0.80
2022-10-25T02:45:02.459Z,0.60
2022-10-25T02:45:34.673Z,0.77
2022-10-25T02:46:10.463Z,0.70
2022-10-25T02:46:45.373Z,0.77
2022-10-25T02:47:17.540Z,0.70
2022-10-25T02:47:52.312Z,0.70
2022-10-25T02:48:24.517Z,0.97
2022-10-25T02:48:56.745Z,0.80
2022-10-25T02:49:32.059Z,0.60
2022-10-25T02:50:05.118Z,0.60
2022-10-25T02:50:37.317Z,0.70
2022-10-25T02:51:13.203Z,0.77
2022-10-25T02:51:45.848Z,0.80
2022-10-25T02:52:18.075Z,0.70
2022-10-25T02:52:52.871Z,0.60
2022-10-25T02:53:25.048Z,0.70
2022-10-25T02:53:57.293Z,0.60
2022-10-25T02:54:32.299Z,0.90
2022-10-25T02:55:05.353Z,0.77
2022-10-25T02:55:38.769Z,0.70
2022-10-25T02:56:15.372Z,0.70
2022-10-25T02:56:48.812Z,0.73
2022-10-25T02:57:20.993Z,0.60
2022-10-25T02:57:55.751Z,0.70
2022-10-25T02:58:30.090Z,1.13
2022-10-25T02:59:02.340Z,0.60
2022-10-25T02:59:37.221Z,0.60
2022-10-25T03:00:44.937Z,0.60
2022-10-25T03:01:21.481Z,0.57
2022-10-25T03:01:56.430Z,0.70
2022-10-25T03:02:28.631Z,0.67
2022-10-25T03:03:03.399Z,0.50
2022-10-25T03:03:35.992Z,0.63
2022-10-25T03:04:08.249Z,0.60
2022-10-25T03:04:43.137Z,0.60
2022-10-25T03:05:15.397Z,0.70
2022-10-25T03:05:47.739Z,0.60
2022-10-25T03:06:22.535Z,0.67
2022-10-25T03:06:54.790Z,0.63
2022-10-25T03:07:26.975Z,0.60
2022-10-25T03:08:01.771Z,0.50
2022-10-25T03:08:34.113Z,0.50
2022-10-25T03:09:08.911Z,0.70
2022-10-25T03:09:41.088Z,0.83
2022-10-25T03:10:13.292Z,0.60
2022-10-25T03:10:45.508Z,0.50
2022-10-25T03:11:20.483Z,0.70
2022-10-25T03:11:52.676Z,0.60
2022-10-25T03:12:24.848Z,0.80
2022-10-25T03:12:59.627Z,0.70
2022-10-25T03:13:31.832Z,0.80
2022-10-25T03:14:04.028Z,0.50
2022-10-25T03:14:38.837Z,0.70
2022-10-25T03:15:11.297Z,0.60
2022-10-25T03:15:43.753Z,0.60
2022-10-25T03:16:18.516Z,0.70
2022-10-25T03:16:50.691Z,0.63
2022-10-25T03:17:25.465Z,0.73
2022-10-25T03:18:00.243Z,0.60
2022-10-25T03:18:32.576Z,0.60
2022-10-25T03:19:04.954Z,0.90
2022-10-25T03:19:39.723Z,0.50
2022-10-25T03:20:12.068Z,0.60
2022-10-25T03:20:44.298Z,0.60
2022-10-25T03:21:19.088Z,0.60
2022-10-25T03:21:51.248Z,0.50
2022-10-25T03:22:23.448Z,0.60
2022-10-25T03:22:58.212Z,0.70
2022-10-25T03:23:30.501Z,0.80
2022-10-25T03:24:02.713Z,0.60
2022-10-25T03:24:37.508Z,0.50
2022-10-25T03:25:09.967Z,0.60
2022-10-25T03:25:42.163Z,0.80
2022-10-25T03:26:16.988Z,6.37
2022-10-25T03:26:49.261Z,0.60
2022-10-25T03:27:21.532Z,0.70
2022-10-25T03:27:56.350Z,0.70
2022-10-25T03:28:31.874Z,0.60
2022-10-25T03:29:06.732Z,0.73
2022-10-25T03:29:38.941Z,0.70
2022-10-25T03:30:13.205Z,0.70
2022-10-25T03:30:45.416Z,0.60
2022-10-25T03:31:21.059Z,0.57
2022-10-25T03:31:53.415Z,0.50
2022-10-25T03:32:28.276Z,0.60
2022-10-25T03:33:03.256Z,0.60
2022-10-25T03:33:35.438Z,0.60
2022-10-25T03:34:07.698Z,0.60
2022-10-25T03:34:42.520Z,0.80
2022-10-25T03:35:14.964Z,0.50
2022-10-25T03:35:50.232Z,0.73
2022-10-25T03:36:25.038Z,0.70
2022-10-25T03:36:57.976Z,0.73
2022-10-25T03:37:30.146Z,0.60
2022-10-25T03:38:05.009Z,0.53
2022-10-25T03:38:37.368Z,0.70
2022-10-25T03:39:10.528Z,0.70
2022-10-25T03:39:45.294Z,0.50
2022-10-25T03:40:18.061Z,0.50
2022-10-25T03:40:50.265Z,0.60
2022-10-25T03:41:25.043Z,0.60
2022-10-25T03:41:57.231Z,0.60
2022-10-25T03:42:29.411Z,0.70
2022-10-25T03:43:04.201Z,0.80
2022-10-25T03:43:36.643Z,0.60
2022-10-25T03:44:09.105Z,0.70
2022-10-25T03:44:43.900Z,0.60
2022-10-25T03:45:16.229Z,0.83
2022-10-25T03:45:48.440Z,0.70
2022-10-25T03:46:23.382Z,0.80
2022-10-25T03:46:55.573Z,0.80
2022-10-25T03:47:30.365Z,0.80
2022-10-25T03:48:05.149Z,0.60
2022-10-25T03:48:37.344Z,0.73
2022-10-25T03:49:09.582Z,0.80
2022-10-25T03:49:44.420Z,0.70
2022-10-25T03:50:16.717Z,0.80
2022-10-25T03:50:48.949Z,0.90
2022-10-25T03:51:23.744Z,0.70
2022-10-25T03:51:58.741Z,0.60
2022-10-25T03:52:33.445Z,0.67
2022-10-25T03:54:01.001Z,0.70
2022-10-25T03:54:35.899Z,0.80
2022-10-25T03:55:09.365Z,0.80
2022-10-25T03:55:41.548Z,0.87
2022-10-25T03:56:16.327Z,0.83
2022-10-25T03:56:48.507Z,0.60
2022-10-25T03:57:20.724Z,1.00
2022-10-25T03:57:55.524Z,0.87
2022-10-25T03:58:27.713Z,0.80
2022-10-25T03:58:59.973Z,0.80
2022-10-25T03:59:34.796Z,0.70
2022-10-25T04:00:08.625Z,0.50
2022-10-25T04:00:46.839Z,0.60
2022-10-25T04:01:21.961Z,0.70
2022-10-25T04:01:54.564Z,0.60
2022-10-25T04:02:29.708Z,0.50
2022-10-25T04:03:58.908Z,0.60
2022-10-25T04:04:34.137Z,0.73
2022-10-25T04:05:09.456Z,0.80
2022-10-25T04:05:42.637Z,0.60
2022-10-25T04:06:21.359Z,0.67
2022-10-25T04:06:56.123Z,0.53
2022-10-25T04:07:28.519Z,0.50
2022-10-25T04:08:04.024Z,0.60
2022-10-25T04:08:40.484Z,0.60
2022-10-25T04:09:14.943Z,0.60
2022-10-25T04:09:54.400Z,0.70
2022-10-25T04:10:28.522Z,0.60
2022-10-25T04:11:01.014Z,0.60
2022-10-25T04:11:40.345Z,0.50
2022-10-25T04:12:19.880Z,0.50
2022-10-25T04:12:53.851Z,0.67
2022-10-25T04:13:29.728Z,0.70
2022-10-25T04:14:01.995Z,0.57
2022-10-25T04:14:34.240Z,0.50
2022-10-25T04:15:10.969Z,0.50
2022-10-25T04:15:43.173Z,0.50
2022-10-25T04:16:20.100Z,0.60
2022-10-25T04:16:56.724Z,0.50
2022-10-25T04:17:33.140Z,0.60
2022-10-25T04:18:06.211Z,0.60
2022-10-25T04:18:41.510Z,0.60
2022-10-25T04:19:13.749Z,0.60
2022-10-25T04:19:45.932Z,0.60
2022-10-25T04:20:21.554Z,0.50
2022-10-25T04:20:53.743Z,0.50
2022-10-25T04:21:28.567Z,0.60
2022-10-25T04:22:02.281Z,0.50
2022-10-25T04:23:31.615Z,0.50
2022-10-25T04:24:07.120Z,0.60
2022-10-25T04:24:42.577Z,0.50
2022-10-25T04:25:22.653Z,0.50
2022-10-25T04:25:58.648Z,0.40
2022-10-25T04:26:31.765Z,0.40
2022-10-25T04:27:07.135Z,0.50
2022-10-25T04:27:42.144Z,0.40
2022-10-25T04:28:14.730Z,1.20
2022-10-25T04:28:53.777Z,0.50
2022-10-25T04:29:28.604Z,0.50
2022-10-25T04:30:04.684Z,0.50
2022-10-25T04:30:38.794Z,0.50
2022-10-25T04:31:16.356Z,0.60
2022-10-25T04:31:48.677Z,0.50
2022-10-25T04:32:35.117Z,0.60
2022-10-25T04:33:07.421Z,0.60
2022-10-25T04:33:39.598Z,0.50
2022-10-25T04:34:16.508Z,0.70
2022-10-25T04:34:51.559Z,0.67
2022-10-25T04:35:23.788Z,0.70
2022-10-25T04:35:59.366Z,0.53
2022-10-25T04:36:32.203Z,0.73
2022-10-25T04:37:04.554Z,0.60
2022-10-25T04:37:39.416Z,0.70
2022-10-25T04:38:19.819Z,0.70
2022-10-25T04:38:52.920Z,0.50
2022-10-25T04:39:26.471Z,0.70
2022-10-25T04:40:01.232Z,0.60
2022-10-25T04:40:33.436Z,0.70
2022-10-25T04:41:05.923Z,0.80
2022-10-25T04:41:40.708Z,0.90
2022-10-25T04:42:12.885Z,0.67
2022-10-25T04:42:45.263Z,0.77
2022-10-25T04:43:20.233Z,0.60
2022-10-25T04:43:52.627Z,0.60
2022-10-25T04:44:24.808Z,0.50
2022-10-25T04:44:59.566Z,0.70
2022-10-25T04:45:31.878Z,0.60
2022-10-25T04:46:07.055Z,0.70
2022-10-25T04:46:39.328Z,0.60
2022-10-25T04:47:11.523Z,0.70
2022-10-25T04:47:48.976Z,0.50
2022-10-25T04:48:21.823Z,0.80
2022-10-25T04:48:54.021Z,0.87
2022-10-25T04:49:28.828Z,0.70
2022-10-25T04:50:01.080Z,0.70
2022-10-25T04:50:33.340Z,0.70
2022-10-25T04:51:08.710Z,0.60
2022-10-25T04:51:41.286Z,0.77
2022-10-25T04:52:13.490Z,0.70
2022-10-25T04:52:48.472Z,0.57
2022-10-25T04:53:21.000Z,0.70
2022-10-25T04:53:53.888Z,0.60
2022-10-25T04:54:28.685Z,0.60
2022-10-25T04:55:00.857Z,0.60
2022-10-25T04:55:33.296Z,0.70
2022-10-25T04:56:09.988Z,0.50
2022-10-25T04:56:42.203Z,0.60
2022-10-25T04:57:14.400Z,0.60
2022-10-25T04:57:49.168Z,2.10
2022-10-25T04:58:21.339Z,0.80
2022-10-25T04:58:56.129Z,0.70
2022-10-25T04:59:28.347Z,0.60
2022-10-25T05:00:00.514Z,0.60
2022-10-25T05:00:44.472Z,0.60
2022-10-25T05:01:19.977Z,0.70
2022-10-25T05:01:53.660Z,0.60
2022-10-25T05:02:29.627Z,0.50
2022-10-25T05:03:12.381Z,0.60
2022-10-25T05:03:45.572Z,0.50
2022-10-25T05:04:22.649Z,0.70
2022-10-25T05:04:58.085Z,0.70
2022-10-25T05:05:35.592Z,0.80
2022-10-25T05:06:09.846Z,0.80
2022-10-25T05:06:42.061Z,0.60
2022-10-25T05:07:19.588Z,0.57
2022-10-25T05:07:53.265Z,0.60
2022-10-25T05:08:29.889Z,0.70
2022-10-25T05:09:07.437Z,0.70
2022-10-25T05:09:41.683Z,0.70
2022-10-25T05:10:17.524Z,0.60
2022-10-25T05:10:56.654Z,0.60
2022-10-25T05:11:28.910Z,0.70
2022-10-25T05:12:03.775Z,0.60
2022-10-25T05:12:35.976Z,0.67
2022-10-25T05:13:08.176Z,0.57
2022-10-25T05:13:45.030Z,0.70
2022-10-25T05:14:17.238Z,0.70
2022-10-25T05:14:52.019Z,0.60
2022-10-25T05:15:24.186Z,0.60
2022-10-25T05:15:56.593Z,0.70
2022-10-25T05:16:34.688Z,0.67
2022-10-25T05:17:06.917Z,0.77
2022-10-25T05:17:39.274Z,0.73
2022-10-25T05:18:16.648Z,0.80
2022-10-25T05:18:49.138Z,0.80
2022-10-25T05:19:23.899Z,0.80
2022-10-25T05:19:56.117Z,0.77
2022-10-25T05:20:28.812Z,0.87
2022-10-25T05:21:06.955Z,0.70
2022-10-25T05:21:39.184Z,0.83
2022-10-25T05:22:14.050Z,1.00
2022-10-25T05:22:46.550Z,0.80
2022-10-25T05:23:18.920Z,0.70
2022-10-25T05:23:57.621Z,0.70
2022-10-25T05:24:33.539Z,0.70
2022-10-25T05:25:09.697Z,0.80
2022-10-25T05:25:41.888Z,0.90
2022-10-25T05:26:15.753Z,1.00
2022-10-25T05:26:50.600Z,0.70
2022-10-25T05:27:22.808Z,0.77
2022-10-25T05:27:54.972Z,1.13
2022-10-25T05:28:27.318Z,0.80
2022-10-25T05:29:07.884Z,1.00
2022-10-25T05:29:43.816Z,0.80
2022-10-25T05:30:19.351Z,0.80
2022-10-25T05:30:54.270Z,0.70
2022-10-25T05:31:29.528Z,1.13
2022-10-25T05:32:05.050Z,0.70
2022-10-25T05:32:37.841Z,1.07
2022-10-25T05:33:10.552Z,0.80
2022-10-25T05:33:48.697Z,0.80
2022-10-25T05:34:28.893Z,1.10
2022-10-25T05:35:03.280Z,1.00
2022-10-25T05:35:35.528Z,0.80
2022-10-25T05:36:15.458Z,0.88
2022-10-25T05:36:47.680Z,0.80
2022-10-25T05:37:20.886Z,0.60
2022-10-25T05:38:01.390Z,0.80
2022-10-25T05:38:37.733Z,0.93
2022-10-25T05:39:15.833Z,0.80
2022-10-25T05:39:48.000Z,0.70
2022-10-25T05:40:25.132Z,0.80
2022-10-25T05:41:03.164Z,0.70
2022-10-25T05:41:37.151Z,0.80
2022-10-25T05:42:12.335Z,0.67
2022-10-25T05:42:44.761Z,1.10
2022-10-25T05:43:23.017Z,0.80
2022-10-25T05:44:00.494Z,0.80
2022-10-25T05:44:33.039Z,0.73
2022-10-25T05:45:06.476Z,0.67
2022-10-25T05:45:42.710Z,0.77
2022-10-25T05:46:20.072Z,0.70
2022-10-25T05:46:56.473Z,1.07
2022-10-25T05:47:28.688Z,0.80
2022-10-25T05:48:00.956Z,0.80
2022-10-25T05:48:38.621Z,0.80
2022-10-25T05:49:17.079Z,0.90
2022-10-25T05:49:53.455Z,0.97
2022-10-25T05:50:25.691Z,1.10
2022-10-25T05:51:21.237Z,0.90
2022-10-25T05:52:06.918Z,0.90
2022-10-25T05:52:42.477Z,0.80
2022-10-25T05:53:16.092Z,1.63
2022-10-25T05:53:55.390Z,0.70
2022-10-25T05:54:27.729Z,0.70
2022-10-25T05:55:04.669Z,0.70
2022-10-25T05:55:39.568Z,0.93
2022-10-25T05:56:13.970Z,0.73
2022-10-25T05:56:48.837Z,0.70
2022-10-25T05:57:21.883Z,0.80
2022-10-25T05:57:54.069Z,0.80
2022-10-25T05:58:28.844Z,0.70
2022-10-25T05:59:03.345Z,0.80
2022-10-25T05:59:39.670Z,0.70
2022-10-25T06:00:15.121Z,0.80
2022-10-25T06:00:47.942Z,0.87
2022-10-25T06:01:28.812Z,0.90
2022-10-25T06:02:03.790Z,0.80
2022-10-25T06:02:41.925Z,0.83
2022-10-25T06:03:14.092Z,0.90
2022-10-25T06:03:48.429Z,0.80
2022-10-25T06:04:25.812Z,0.80
2022-10-25T06:04:58.014Z,0.90
2022-10-25T06:05:30.280Z,0.80
2022-10-25T06:06:03.060Z,0.87
2022-10-25T06:06:38.698Z,0.73
2022-10-25T06:07:10.902Z,1.00
2022-10-25T06:07:43.166Z,1.00
2022-10-25T06:08:17.944Z,0.80
2022-10-25T06:08:50.471Z,0.68
2022-10-25T06:09:25.343Z,0.70
2022-10-25T06:09:57.588Z,0.60
2022-10-25T06:10:29.758Z,0.90
2022-10-25T06:11:05.352Z,0.80
2022-10-25T06:11:38.225Z,0.80
2022-10-25T06:12:13.053Z,0.70
2022-10-25T06:12:45.601Z,0.83
2022-10-25T06:13:17.948Z,0.70
2022-10-25T06:13:52.723Z,0.70
2022-10-25T06:14:25.089Z,0.70
2022-10-25T06:14:59.909Z,0.83
2022-10-25T06:15:32.387Z,0.90
2022-10-25T06:16:05.204Z,0.83
2022-10-25T06:16:40.545Z,0.70
2022-10-25T06:17:12.895Z,0.80
2022-10-25T06:17:45.068Z,0.83
2022-10-25T06:18:20.025Z,0.60
2022-10-25T06:18:53.043Z,0.67
2022-10-25T06:19:30.872Z,0.70
2022-10-25T06:20:03.105Z,0.70
2022-10-25T06:20:35.377Z,0.80
2022-10-25T06:21:11.437Z,0.70
2022-10-25T06:21:43.742Z,0.60
2022-10-25T06:22:16.096Z,0.83
2022-10-25T06:22:50.905Z,1.10
2022-10-25T06:23:23.088Z,0.88
2022-10-25T06:23:55.886Z,1.00
2022-10-25T06:24:30.681Z,0.90
2022-10-25T06:25:02.876Z,0.80
2022-10-25T06:25:35.094Z,0.80
2022-10-25T06:26:11.160Z,0.87
2022-10-25T06:26:43.340Z,0.75
2022-10-25T06:27:18.123Z,0.80
2022-10-25T06:27:50.301Z,0.80
2022-10-25T06:28:22.508Z,0.97
2022-10-25T06:28:58.780Z,0.97
2022-10-25T06:29:30.972Z,0.73
2022-10-25T06:30:05.892Z,0.93
2022-10-25T06:30:38.111Z,0.90
2022-10-25T06:31:11.820Z,0.73
2022-10-25T06:31:46.580Z,0.90
2022-10-25T06:32:18.754Z,0.80
2022-10-25T06:32:50.931Z,0.87
2022-10-25T06:33:27.950Z,0.90
2022-10-25T06:34:00.896Z,0.90
2022-10-25T06:34:38.278Z,1.10
2022-10-25T06:35:10.470Z,0.70
2022-10-25T06:35:42.679Z,0.80
2022-10-25T06:36:18.683Z,0.70
2022-10-25T06:36:51.004Z,0.90
2022-10-25T06:37:25.892Z,0.70
2022-10-25T06:37:59.279Z,0.77
2022-10-25T06:38:31.807Z,0.80
2022-10-25T06:39:07.079Z,0.80
2022-10-25T06:39:39.388Z,0.80
2022-10-25T06:40:15.023Z,0.80
2022-10-25T06:40:47.243Z,1.00
2022-10-25T06:41:23.697Z,0.60
2022-10-25T06:41:55.904Z,0.60
2022-10-25T06:42:30.736Z,0.50
2022-10-25T06:43:03.820Z,2.63
2022-10-25T06:43:39.007Z,2.20
2022-10-25T06:44:11.176Z,1.30
2022-10-25T06:44:45.975Z,0.90
2022-10-25T06:45:18.324Z,1.20
2022-10-25T06:45:50.501Z,1.20
2022-10-25T06:46:26.966Z,1.37
2022-10-25T06:47:55.279Z,1.30
2022-10-25T06:48:27.476Z,1.07
2022-10-25T06:49:00.964Z,1.07
2022-10-25T06:49:38.340Z,1.10
2022-10-25T06:50:10.586Z,1.33
2022-10-25T06:50:42.751Z,1.00
2022-10-25T06:51:18.497Z,1.00
2022-10-25T06:51:50.661Z,0.93
2022-10-25T06:52:25.432Z,0.87
2022-10-25T06:52:58.341Z,1.00
2022-10-25T06:53:30.560Z,1.80
2022-10-25T06:54:09.589Z,0.73
2022-10-25T06:54:41.771Z,1.03
2022-10-25T06:55:14.115Z,0.90
2022-10-25T06:55:49.632Z,1.00
2022-10-25T06:56:21.840Z,1.00
2022-10-25T06:56:56.608Z,0.90
2022-10-25T06:57:28.832Z,1.07
2022-10-25T06:58:01.144Z,0.97
2022-10-25T06:58:36.839Z,0.87
2022-10-25T06:59:09.051Z,1.00
2022-10-25T06:59:43.820Z,1.17
2022-10-25T07:00:16.321Z,1.00
2022-10-25T07:00:49.720Z,0.83
2022-10-25T07:01:26.755Z,1.40
2022-10-25T07:01:59.180Z,1.30
2022-10-25T07:02:34.075Z,1.10
2022-10-25T07:03:06.272Z,1.03
2022-10-25T07:03:41.293Z,1.30
2022-10-25T07:04:13.615Z,1.67
2022-10-25T07:04:51.014Z,1.40
2022-10-25T07:05:23.218Z,1.57
2022-10-25T07:05:55.737Z,1.93
2022-10-25T07:06:35.747Z,1.73
2022-10-25T07:07:08.443Z,1.53
2022-10-25T07:07:43.290Z,1.80
2022-10-25T07:08:15.472Z,1.70
2022-10-25T07:08:48.132Z,1.70
2022-10-25T07:09:22.907Z,1.77
2022-10-25T07:09:55.087Z,1.60
2022-10-25T07:10:27.289Z,1.60
2022-10-25T07:11:02.128Z,1.30
2022-10-25T07:11:34.460Z,1.63
2022-10-25T07:12:12.607Z,1.90
2022-10-25T07:12:45.297Z,1.13
2022-10-25T07:13:17.524Z,1.57
2022-10-25T07:13:52.332Z,1.80
2022-10-25T07:14:24.516Z,1.90
2022-10-25T07:14:59.280Z,1.90
2022-10-25T07:15:31.506Z,2.20
2022-10-25T07:16:06.460Z,1.90
2022-10-25T07:16:38.649Z,2.27
2022-10-25T07:17:13.436Z,1.70
2022-10-25T07:17:45.893Z,1.80
2022-10-25T07:18:18.327Z,1.90
2022-10-25T07:18:53.495Z,1.47
2022-10-25T07:19:25.683Z,2.27
2022-10-25T07:20:03.100Z,1.90
2022-10-25T07:20:35.273Z,1.43
2022-10-25T07:21:11.234Z,1.80
2022-10-25T07:21:43.454Z,1.80
2022-10-25T07:22:18.228Z,1.90
2022-10-25T07:22:50.511Z,1.70
2022-10-25T07:23:22.693Z,2.00
2022-10-25T07:23:57.528Z,1.73
2022-10-25T07:24:29.730Z,1.67
2022-10-25T07:25:04.546Z,1.60
2022-10-25T07:25:36.785Z,1.73
2022-10-25T07:26:09.677Z,1.90
2022-10-25T07:26:44.619Z,2.10
2022-10-25T07:27:16.813Z,2.03
2022-10-25T07:27:49.331Z,1.60
2022-10-25T07:28:24.430Z,2.30
2022-10-25T07:28:57.740Z,2.27
2022-10-25T07:29:32.495Z,2.57
2022-10-25T07:30:05.567Z,2.17
2022-10-25T07:30:40.384Z,2.80
2022-10-25T07:31:13.887Z,2.17
2022-10-25T07:31:48.668Z,2.20
2022-10-25T07:32:20.845Z,3.47
2022-10-25T07:32:53.032Z,2.67
2022-10-25T07:33:27.841Z,2.57
2022-10-25T07:34:01.420Z,2.63
2022-10-25T07:34:36.217Z,4.07
2022-10-25T07:35:11.168Z,3.27
2022-10-25T07:35:58.703Z,3.50
2022-10-25T07:36:40.479Z,4.23
2022-10-25T07:37:12.656Z,3.63
2022-10-25T07:37:47.633Z,2.80
2022-10-25T07:38:22.442Z,3.17
2022-10-25T07:38:58.095Z,2.90
2022-10-25T07:39:32.876Z,3.27
2022-10-25T07:40:06.558Z,2.57
2022-10-25T07:40:38.896Z,7.50
2022-10-25T07:41:13.678Z,3.20
2022-10-25T07:41:45.860Z,2.40
2022-10-25T07:42:20.657Z,2.50
2022-10-25T07:42:52.840Z,2.93
2022-10-25T07:43:25.708Z,2.60
2022-10-25T07:44:00.488Z,2.53
2022-10-25T07:44:32.706Z,2.40
2022-10-25T07:45:08.998Z,2.30
2022-10-25T07:45:41.175Z,2.57
2022-10-25T07:46:13.364Z,2.30
2022-10-25T07:46:49.092Z,2.23
2022-10-25T07:47:21.317Z,2.63
2022-10-25T07:47:53.491Z,2.30
2022-10-25T07:48:28.380Z,1.57
2022-10-25T07:49:00.693Z,1.90
2022-10-25T07:49:36.728Z,2.17
2022-10-25T07:50:11.707Z,1.40
2022-10-25T07:50:44.064Z,1.10
2022-10-25T07:51:20.037Z,1.90
2022-10-25T07:51:52.223Z,1.63